createdAt,value
2018-05-12T00:00:47.457Z,0.00
2018-05-12T00:01:47.371Z,0.00
2018-05-12T00:02:47.300Z,0.00
2018-05-12T00:03:47.231Z,0.00
2018-05-12T00:04:47.146Z,0.00
2018-05-12T00:05:47.155Z,0.00
2018-05-12T00:06:47.010Z,0.00
2018-05-12T00:07:46.925Z,0.00
2018-05-12T00:08:46.848Z,0.00
2018-05-12T00:09:46.781Z,0.00
2018-05-12T00:10:46.700Z,0.00
2018-05-12T00:11:46.620Z,0.00
2018-05-12T00:12:46.551Z,0.00
2018-05-12T00:13:46.469Z,0.00
2018-05-12T00:14:46.394Z,0.00
2018-05-12T00:15:46.328Z,0.00
2018-05-12T00:16:46.241Z,0.00
2018-05-12T00:17:46.176Z,0.00
2018-05-12T00:18:46.099Z,0.00
2018-05-12T00:19:46.020Z,0.00
2018-05-12T00:20:45.951Z,0.00
2018-05-12T00:21:45.879Z,0.00
2018-05-12T00:22:45.800Z,0.00
2018-05-12T00:23:45.713Z,0.00
2018-05-12T00:24:45.648Z,0.00
2018-05-12T00:25:45.565Z,0.00
2018-05-12T00:26:45.485Z,0.00
2018-05-12T00:27:45.430Z,0.00
2018-05-12T00:28:45.337Z,0.00
2018-05-12T00:29:45.259Z,0.00
2018-05-12T00:30:46.079Z,0.00
2018-05-12T00:31:45.108Z,0.00
2018-05-12T00:32:45.038Z,0.00
2018-05-12T00:33:44.967Z,0.00
2018-05-12T00:34:44.881Z,0.00
2018-05-12T00:35:44.802Z,0.00
2018-05-12T00:36:44.733Z,0.00
2018-05-12T00:37:44.660Z,0.00
2018-05-12T00:38:44.580Z,0.00
2018-05-12T00:39:44.502Z,0.00
2018-05-12T00:40:44.434Z,0.00
2018-05-12T00:41:44.363Z,0.00
2018-05-12T00:42:44.275Z,0.00
2018-05-12T00:43:44.203Z,0.00
2018-05-12T00:44:44.123Z,0.00
2018-05-12T00:45:44.048Z,0.00
2018-05-12T00:46:43.977Z,0.00
2018-05-12T00:47:43.895Z,0.00
2018-05-12T00:48:43.824Z,0.00
2018-05-12T00:49:43.754Z,0.00
2018-05-12T00:50:43.669Z,0.00
2018-05-12T00:51:43.595Z,0.00
2018-05-12T00:52:43.525Z,0.00
2018-05-12T00:53:43.446Z,0.00
2018-05-12T00:54:43.362Z,0.00
2018-05-12T00:55:43.306Z,0.00
2018-05-12T00:56:43.215Z,0.00
2018-05-12T00:57:43.137Z,0.00
2018-05-12T00:58:43.072Z,0.00
2018-05-12T00:59:42.988Z,0.00
2018-05-12T01:00:42.907Z,0.00
2018-05-12T01:01:42.847Z,0.00
2018-05-12T01:02:42.756Z,0.00
2018-05-12T01:03:42.680Z,0.00
2018-05-12T01:04:42.610Z,0.00
2018-05-12T01:05:42.538Z,0.00
2018-05-12T01:06:42.452Z,0.00
2018-05-12T01:07:42.383Z,0.00
2018-05-12T01:08:42.300Z,0.00
2018-05-12T01:09:42.228Z,0.00
2018-05-12T01:10:42.154Z,0.00
2018-05-12T01:11:42.076Z,0.00
2018-05-12T01:12:41.993Z,0.00
2018-05-12T01:13:41.990Z,0.00
2018-05-12T01:14:41.856Z,0.00
2018-05-12T01:15:41.765Z,0.00
2018-05-12T01:16:41.699Z,0.00
2018-05-12T01:17:41.622Z,0.00
2018-05-12T01:18:41.541Z,0.00
2018-05-12T01:19:41.480Z,0.00
2018-05-12T01:20:41.391Z,0.00
2018-05-12T01:21:41.315Z,0.00
2018-05-12T01:22:41.241Z,0.00
2018-05-12T01:23:42.088Z,0.00
2018-05-12T01:24:41.084Z,0.00
2018-05-12T01:25:41.012Z,0.00
2018-05-12T01:26:40.930Z,0.00
2018-05-12T01:27:40.862Z,0.00
2018-05-12T01:28:40.779Z,0.00
2018-05-12T01:29:40.714Z,0.00
2018-05-12T01:30:40.627Z,0.00
2018-05-12T01:31:40.565Z,0.00
2018-05-12T01:32:40.474Z,0.00
2018-05-12T01:33:40.398Z,0.00
2018-05-12T01:34:40.332Z,0.00
2018-05-12T01:35:40.244Z,0.00
2018-05-12T01:36:40.169Z,0.00
2018-05-12T01:37:40.093Z,0.00
2018-05-12T01:38:40.016Z,0.00
2018-05-12T01:39:39.939Z,0.00
2018-05-12T01:40:39.869Z,0.00
2018-05-12T01:41:39.787Z,0.00
2018-05-12T01:42:39.720Z,0.00
2018-05-12T01:43:39.644Z,0.00
2018-05-12T01:44:39.561Z,0.00
2018-05-12T01:45:39.493Z,0.00
2018-05-12T01:46:39.405Z,0.00
2018-05-12T01:47:39.330Z,0.00
2018-05-12T01:48:39.251Z,0.00
2018-05-12T01:49:39.185Z,0.00
2018-05-12T01:50:39.101Z,0.00
2018-05-12T01:51:39.022Z,0.00
2018-05-12T01:52:38.954Z,0.00
2018-05-12T01:53:38.875Z,0.00
2018-05-12T01:54:38.793Z,0.00
2018-05-12T01:55:38.731Z,0.00
2018-05-12T01:56:38.644Z,0.00
2018-05-12T01:57:38.564Z,0.00
2018-05-12T01:58:38.497Z,0.00
2018-05-12T01:59:38.413Z,0.00
2018-05-12T02:00:38.344Z,0.00
2018-05-12T02:01:38.260Z,0.00
2018-05-12T02:02:38.184Z,0.00
2018-05-12T02:03:38.105Z,0.00
2018-05-12T02:04:38.040Z,0.00
2018-05-12T02:05:37.954Z,0.00
2018-05-12T02:06:37.877Z,0.00
2018-05-12T02:07:37.807Z,0.00
2018-05-12T02:08:37.741Z,0.00
2018-05-12T02:09:37.649Z,0.00
2018-05-12T02:10:37.579Z,0.00
2018-05-12T02:11:37.496Z,0.00
2018-05-12T02:12:37.422Z,0.00
2018-05-12T02:13:37.351Z,0.00
2018-05-12T02:14:37.265Z,0.00
2018-05-12T02:15:37.185Z,0.00
2018-05-12T02:16:37.126Z,0.00
2018-05-12T02:17:37.042Z,0.00
2018-05-12T02:18:36.958Z,0.00
2018-05-12T02:19:36.890Z,0.00
2018-05-12T02:20:36.802Z,0.00
2018-05-12T02:21:36.737Z,0.00
2018-05-12T02:22:36.653Z,0.00
2018-05-12T02:23:36.575Z,0.00
2018-05-12T02:24:36.501Z,0.00
2018-05-12T02:25:36.430Z,0.00
2018-05-12T02:26:36.354Z,0.00
2018-05-12T02:27:36.269Z,0.00
2018-05-12T02:28:36.201Z,0.00
2018-05-12T02:29:36.127Z,0.00
2018-05-12T02:30:36.042Z,0.00
2018-05-12T02:31:36.968Z,0.00
2018-05-12T02:32:35.894Z,0.00
2018-05-12T02:33:35.820Z,0.00
2018-05-12T02:34:35.740Z,0.00
2018-05-12T02:35:35.664Z,0.00
2018-05-12T02:36:35.580Z,0.00
2018-05-12T02:37:35.512Z,0.00
2018-05-12T02:38:35.434Z,0.00
2018-05-12T02:39:35.349Z,0.00
2018-05-12T02:40:35.283Z,0.00
2018-05-12T02:41:35.203Z,0.00
2018-05-12T02:42:35.128Z,0.00
2018-05-12T02:43:35.052Z,0.00
2018-05-12T02:44:34.975Z,0.00
2018-05-12T02:45:34.892Z,0.00
2018-05-12T02:46:34.823Z,0.00
2018-05-12T02:47:35.741Z,0.00
2018-05-12T02:48:34.659Z,0.00
2018-05-12T02:49:35.590Z,0.00
2018-05-12T02:50:34.511Z,0.00
2018-05-12T02:51:34.427Z,0.00
2018-05-12T02:52:34.361Z,0.00
2018-05-12T02:53:34.284Z,0.00
2018-05-12T02:54:34.201Z,0.00
2018-05-12T02:55:34.133Z,0.00
2018-05-12T02:56:34.050Z,0.00
2018-05-12T02:57:33.967Z,0.00
2018-05-12T02:58:33.901Z,0.00
2018-05-12T02:59:33.829Z,0.00
2018-05-12T03:00:33.738Z,0.00
2018-05-12T03:01:33.670Z,0.00
2018-05-12T03:02:33.589Z,0.00
2018-05-12T03:03:33.508Z,0.00
2018-05-12T03:04:33.439Z,0.00
2018-05-12T03:05:33.362Z,0.00
2018-05-12T03:06:33.282Z,0.00
2018-05-12T03:07:33.211Z,0.00
2018-05-12T03:08:33.132Z,0.00
2018-05-12T03:09:33.043Z,0.00
2018-05-12T03:10:32.975Z,0.00
2018-05-12T03:11:32.903Z,0.00
2018-05-12T03:12:32.816Z,0.00
2018-05-12T03:13:32.747Z,0.00
2018-05-12T03:14:32.668Z,0.00
2018-05-12T03:15:32.602Z,0.00
2018-05-12T03:16:32.514Z,0.00
2018-05-12T03:17:32.431Z,0.00
2018-05-12T03:18:32.350Z,0.00
2018-05-12T03:19:33.283Z,0.00
2018-05-12T03:20:32.203Z,0.00
2018-05-12T03:21:32.123Z,0.00
2018-05-12T03:22:32.057Z,0.00
2018-05-12T03:23:31.963Z,0.00
2018-05-12T03:24:31.889Z,0.00
2018-05-12T03:25:31.822Z,0.00
2018-05-12T03:26:31.737Z,0.00
2018-05-12T03:27:31.660Z,0.00
2018-05-12T03:28:31.591Z,0.00
2018-05-12T03:29:31.505Z,0.00
2018-05-12T03:30:31.438Z,0.00
2018-05-12T03:31:31.440Z,0.00
2018-05-12T03:32:31.314Z,0.00
2018-05-12T03:33:31.204Z,0.00
2018-05-12T03:34:31.155Z,0.00
2018-05-12T03:35:31.044Z,0.00
2018-05-12T03:36:30.963Z,0.00
2018-05-12T03:37:30.968Z,0.00
2018-05-12T03:38:30.811Z,0.00
2018-05-12T03:39:30.734Z,0.00
2018-05-12T03:40:30.673Z,0.00
2018-05-12T03:41:30.583Z,0.00
2018-05-12T03:42:30.507Z,0.00
2018-05-12T03:43:30.434Z,0.00
2018-05-12T03:44:30.354Z,0.00
2018-05-12T03:45:30.278Z,0.00
2018-05-12T03:46:30.309Z,0.00
2018-05-12T03:47:30.124Z,0.00
2018-05-12T03:48:30.040Z,0.00
2018-05-12T03:49:30.029Z,0.00
2018-05-12T03:50:29.885Z,0.00
2018-05-12T03:51:29.806Z,0.00
2018-05-12T03:52:29.838Z,0.00
2018-05-12T03:53:29.665Z,0.00
2018-05-12T03:54:29.577Z,0.00
2018-05-12T03:55:29.554Z,0.00
2018-05-12T03:56:29.424Z,0.00
2018-05-12T03:57:29.349Z,0.00
2018-05-12T03:58:29.275Z,0.00
2018-05-12T03:59:29.191Z,0.00
2018-05-12T04:00:29.114Z,0.00
2018-05-12T04:01:29.079Z,0.00
2018-05-12T04:02:28.966Z,0.00
2018-05-12T04:03:28.883Z,0.00
2018-05-12T04:04:28.897Z,0.00
2018-05-12T04:05:28.729Z,5.63
2018-05-12T04:06:28.653Z,5.63
2018-05-12T04:07:28.604Z,5.63
2018-05-12T04:08:28.556Z,5.63
2018-05-12T04:09:28.419Z,5.63
2018-05-12T04:10:28.349Z,5.63
2018-05-12T04:11:28.262Z,5.63
2018-05-12T04:12:28.187Z,5.63
2018-05-12T04:13:28.140Z,5.63
2018-05-12T04:14:28.034Z,5.63
2018-05-12T04:15:27.954Z,5.63
2018-05-12T04:16:27.950Z,5.63
2018-05-12T04:17:27.800Z,5.63
2018-05-12T04:18:27.732Z,5.63
2018-05-12T04:19:27.664Z,5.63
2018-05-12T04:20:27.573Z,5.63
2018-05-12T04:21:27.491Z,5.63
2018-05-12T04:22:27.478Z,5.63
2018-05-12T04:23:27.339Z,5.63
2018-05-12T04:24:27.260Z,5.63
2018-05-12T04:25:27.293Z,5.63
2018-05-12T04:26:27.107Z,5.63
2018-05-12T04:27:27.039Z,5.63
2018-05-12T04:28:26.959Z,5.63
2018-05-12T04:29:26.871Z,5.63
2018-05-12T04:30:26.802Z,5.63
2018-05-12T04:31:26.728Z,5.63
2018-05-12T04:32:26.644Z,5.63
2018-05-12T04:33:26.589Z,11.25
2018-05-12T04:34:26.499Z,11.25
2018-05-12T04:35:26.410Z,11.25
2018-05-12T04:36:26.340Z,11.25
2018-05-12T04:37:26.353Z,11.25
2018-05-12T04:38:26.183Z,11.25
2018-05-12T04:39:26.102Z,11.25
2018-05-12T04:40:26.063Z,11.25
2018-05-12T04:41:25.946Z,11.25
2018-05-12T04:42:25.871Z,11.25
2018-05-12T04:43:25.931Z,11.25
2018-05-12T04:44:25.723Z,11.25
2018-05-12T04:45:25.648Z,11.25
2018-05-12T04:46:25.591Z,11.25
2018-05-12T04:47:25.490Z,11.25
2018-05-12T04:48:25.408Z,11.25
2018-05-12T04:49:25.330Z,11.25
2018-05-12T04:50:25.310Z,11.25
2018-05-12T04:51:25.179Z,11.25
2018-05-12T04:52:25.119Z,11.25
2018-05-12T04:53:25.023Z,11.25
2018-05-12T04:54:24.943Z,11.25
2018-05-12T04:55:24.939Z,11.25
2018-05-12T04:56:24.796Z,11.25
2018-05-12T04:57:24.714Z,11.25
2018-05-12T04:58:24.748Z,11.25
2018-05-12T04:59:24.561Z,16.88
2018-05-12T05:00:24.481Z,16.88
2018-05-12T05:01:24.461Z,16.88
2018-05-12T05:02:24.327Z,16.88
2018-05-12T05:03:24.250Z,16.88
2018-05-12T05:04:24.175Z,16.88
2018-05-12T05:05:24.181Z,16.88
2018-05-12T05:06:24.018Z,16.88
2018-05-12T05:07:23.952Z,16.88
2018-05-12T05:08:23.870Z,16.88
2018-05-12T05:09:23.791Z,16.88
2018-05-12T05:10:23.731Z,16.88
2018-05-12T05:11:23.634Z,16.88
2018-05-12T05:12:23.560Z,16.88
2018-05-12T05:13:23.516Z,16.88
2018-05-12T05:14:23.398Z,16.88
2018-05-12T05:15:23.442Z,16.88
2018-05-12T05:16:23.263Z,16.88
2018-05-12T05:17:23.175Z,16.88
2018-05-12T05:18:23.096Z,16.88
2018-05-12T05:19:23.046Z,16.88
2018-05-12T05:20:22.943Z,16.88
2018-05-12T05:21:22.866Z,16.88
2018-05-12T05:22:22.860Z,16.88
2018-05-12T05:23:22.721Z,22.50
2018-05-12T05:24:22.668Z,22.50
2018-05-12T05:25:22.558Z,22.50
2018-05-12T05:26:22.579Z,22.50
2018-05-12T05:27:22.417Z,22.50
2018-05-12T05:28:22.330Z,22.50
2018-05-12T05:29:22.292Z,22.50
2018-05-12T05:30:22.185Z,22.50
2018-05-12T05:31:22.101Z,22.50
2018-05-12T05:32:22.032Z,22.50
2018-05-12T05:33:22.018Z,22.50
2018-05-12T05:34:21.872Z,22.50
2018-05-12T05:35:21.799Z,22.50
2018-05-12T05:36:21.715Z,22.50
2018-05-12T05:37:21.639Z,22.50
2018-05-12T05:38:21.634Z,22.50
2018-05-12T05:39:21.538Z,28.13
2018-05-12T05:40:21.412Z,28.13
2018-05-12T05:41:21.450Z,28.13
2018-05-12T05:42:21.355Z,28.13
2018-05-12T05:43:21.176Z,28.13
2018-05-12T05:44:21.169Z,28.13
2018-05-12T05:45:21.068Z,28.13
2018-05-12T05:46:20.949Z,28.13
2018-05-12T05:47:20.978Z,28.13
2018-05-12T05:48:20.808Z,28.13
2018-05-12T05:49:20.718Z,28.13
2018-05-12T05:50:20.703Z,28.13
2018-05-12T05:51:20.572Z,28.13
2018-05-12T05:52:20.603Z,28.13
2018-05-12T05:53:20.415Z,28.13
2018-05-12T05:54:20.345Z,28.13
2018-05-12T05:55:20.268Z,28.13
2018-05-12T05:56:20.185Z,28.13
2018-05-12T05:57:20.108Z,28.13
2018-05-12T05:58:20.130Z,28.13
2018-05-12T05:59:19.954Z,28.13
2018-05-12T06:00:19.874Z,33.75
2018-05-12T06:01:19.842Z,33.75
2018-05-12T06:02:19.724Z,33.75
2018-05-12T06:03:19.651Z,33.75
2018-05-12T06:04:19.656Z,33.75
2018-05-12T06:05:19.496Z,33.75
2018-05-12T06:06:19.422Z,33.75
2018-05-12T06:07:19.372Z,33.75
2018-05-12T06:08:19.275Z,33.75
2018-05-12T06:09:19.196Z,33.75
2018-05-12T06:10:19.184Z,33.75
2018-05-12T06:11:19.045Z,33.75
2018-05-12T06:12:18.964Z,33.75
2018-05-12T06:13:19.001Z,33.75
2018-05-12T06:14:18.813Z,33.75
2018-05-12T06:15:18.736Z,33.75
2018-05-12T06:16:18.712Z,33.75
2018-05-12T06:17:18.583Z,33.75
2018-05-12T06:18:18.505Z,33.75
2018-05-12T06:19:18.528Z,33.75
2018-05-12T06:20:18.355Z,33.75
2018-05-12T06:21:18.279Z,33.75
2018-05-12T06:22:18.241Z,33.75
2018-05-12T06:23:18.135Z,33.75
2018-05-12T06:24:18.058Z,39.38
2018-05-12T06:25:17.980Z,39.38
2018-05-12T06:26:17.966Z,39.38
2018-05-12T06:27:17.824Z,39.38
2018-05-12T06:28:17.770Z,39.38
2018-05-12T06:29:17.676Z,39.38
2018-05-12T06:30:17.605Z,39.38
2018-05-12T06:31:17.584Z,39.38
2018-05-12T06:32:17.448Z,39.38
2018-05-12T06:33:17.369Z,39.38
2018-05-12T06:34:17.399Z,39.38
2018-05-12T06:35:17.219Z,39.38
2018-05-12T06:36:17.143Z,39.38
2018-05-12T06:37:17.078Z,45.00
2018-05-12T06:38:16.992Z,45.00
2018-05-12T06:39:16.917Z,45.00
2018-05-12T06:40:16.933Z,45.00
2018-05-12T06:41:16.765Z,45.00
2018-05-12T06:42:16.693Z,45.00
2018-05-12T06:43:16.639Z,45.00
2018-05-12T06:44:16.535Z,50.63
2018-05-12T06:45:16.463Z,50.63
2018-05-12T06:46:16.389Z,50.63
2018-05-12T06:47:16.360Z,50.63
2018-05-12T06:48:16.238Z,50.63
2018-05-12T06:49:16.269Z,56.25
2018-05-12T06:50:16.095Z,56.25
2018-05-12T06:51:16.012Z,56.25
2018-05-12T06:52:15.983Z,56.25
2018-05-12T06:53:15.868Z,56.25
2018-05-12T06:54:15.786Z,61.88
2018-05-12T06:55:15.799Z,61.88
2018-05-12T06:56:15.639Z,61.88
2018-05-12T06:57:15.560Z,61.88
2018-05-12T06:58:15.511Z,67.50
2018-05-12T06:59:15.413Z,67.50
2018-05-12T07:00:15.338Z,67.50
2018-05-12T07:01:15.337Z,67.50
2018-05-12T07:02:15.230Z,73.13
2018-05-12T07:03:15.136Z,73.13
2018-05-12T07:04:15.038Z,78.75
2018-05-12T07:05:15.048Z,78.75
2018-05-12T07:06:14.889Z,84.38
2018-05-12T07:07:14.813Z,84.38
2018-05-12T07:08:14.745Z,84.38
2018-05-12T07:09:14.765Z,90.00
2018-05-12T07:10:14.588Z,90.00
2018-05-12T07:11:15.604Z,90.00
2018-05-12T07:12:14.478Z,95.63
2018-05-12T07:13:14.377Z,95.63
2018-05-12T07:14:14.297Z,101.25
2018-05-12T07:15:14.213Z,101.25
2018-05-12T07:16:14.205Z,106.88
2018-05-12T07:17:14.066Z,106.88
2018-05-12T07:18:13.989Z,112.50
2018-05-12T07:19:13.922Z,112.50
2018-05-12T07:20:13.848Z,118.13
2018-05-12T07:21:13.780Z,118.13
2018-05-12T07:22:13.750Z,123.75
2018-05-12T07:23:13.634Z,123.75
2018-05-12T07:24:13.554Z,129.38
2018-05-12T07:25:13.479Z,129.38
2018-05-12T07:26:13.408Z,135.00
2018-05-12T07:27:13.324Z,140.63
2018-05-12T07:28:13.255Z,140.63
2018-05-12T07:29:13.188Z,146.25
2018-05-12T07:30:13.106Z,146.25
2018-05-12T07:31:13.033Z,151.88
2018-05-12T07:32:12.965Z,151.88
2018-05-12T07:33:12.886Z,157.50
2018-05-12T07:34:12.816Z,157.50
2018-05-12T07:35:12.756Z,157.50
2018-05-12T07:36:12.666Z,163.13
2018-05-12T07:37:12.600Z,163.13
2018-05-12T07:38:12.525Z,168.75
2018-05-12T07:39:12.447Z,168.75
2018-05-12T07:40:12.378Z,168.75
2018-05-12T07:41:12.421Z,174.38
2018-05-12T07:42:12.225Z,174.38
2018-05-12T07:43:12.156Z,180.00
2018-05-12T07:44:12.091Z,180.00
2018-05-12T07:45:12.003Z,180.00
2018-05-12T07:46:11.939Z,185.63
2018-05-12T07:47:11.870Z,185.63
2018-05-12T07:48:11.792Z,185.63
2018-05-12T07:49:11.720Z,185.63
2018-05-12T07:50:11.660Z,191.25
2018-05-12T07:51:11.585Z,191.25
2018-05-12T07:52:11.513Z,191.25
2018-05-12T07:53:11.439Z,196.88
2018-05-12T07:54:11.354Z,196.88
2018-05-12T07:55:11.301Z,196.88
2018-05-12T07:56:11.215Z,196.88
2018-05-12T07:57:11.142Z,202.50
2018-05-12T07:58:11.103Z,202.50
2018-05-12T07:59:10.998Z,202.50
2018-05-12T08:00:10.924Z,202.50
2018-05-12T08:01:10.856Z,202.50
2018-05-12T08:02:10.787Z,202.50
2018-05-12T08:03:10.707Z,202.50
2018-05-12T08:04:10.729Z,208.13
2018-05-12T08:05:10.567Z,208.13
2018-05-12T08:06:10.492Z,208.13
2018-05-12T08:07:10.425Z,208.13
2018-05-12T08:08:10.450Z,208.13
2018-05-12T08:09:10.282Z,208.13
2018-05-12T08:10:10.210Z,213.75
2018-05-12T08:11:10.161Z,213.75
2018-05-12T08:12:10.067Z,213.75
2018-05-12T08:13:10.000Z,213.75
2018-05-12T08:14:09.979Z,213.75
2018-05-12T08:15:09.855Z,213.75
2018-05-12T08:16:09.889Z,213.75
2018-05-12T08:17:09.715Z,213.75
2018-05-12T08:18:09.643Z,219.38
2018-05-12T08:19:09.571Z,219.38
2018-05-12T08:20:09.604Z,219.38
2018-05-12T08:21:09.437Z,219.38
2018-05-12T08:22:09.360Z,219.38
2018-05-12T08:23:09.398Z,219.38
2018-05-12T08:24:09.219Z,219.38
2018-05-12T08:25:09.153Z,225.00
2018-05-12T08:26:09.241Z,219.38
2018-05-12T08:27:09.010Z,219.38
2018-05-12T08:28:08.941Z,219.38
2018-05-12T08:29:08.950Z,225.00
2018-05-12T08:30:08.802Z,225.00
2018-05-12T08:31:08.729Z,225.00
2018-05-12T08:32:08.769Z,225.00
2018-05-12T08:33:08.590Z,225.00
2018-05-12T08:34:08.518Z,225.00
2018-05-12T08:35:08.483Z,225.00
2018-05-12T08:36:08.389Z,225.00
2018-05-12T08:37:08.386Z,225.00
2018-05-12T08:38:08.244Z,225.00
2018-05-12T08:39:08.172Z,225.00
2018-05-12T08:40:08.104Z,225.00
2018-05-12T08:41:08.109Z,225.00
2018-05-12T08:42:08.013Z,225.00
2018-05-12T08:43:07.895Z,225.00
2018-05-12T08:44:07.927Z,225.00
2018-05-12T08:45:07.772Z,225.00
2018-05-12T08:46:07.693Z,225.00
2018-05-12T08:47:07.738Z,225.00
2018-05-12T08:48:07.644Z,225.00
2018-05-12T08:49:07.481Z,230.63
2018-05-12T08:50:07.449Z,230.63
2018-05-12T08:51:07.458Z,230.63
2018-05-12T08:52:07.280Z,230.63
2018-05-12T08:53:07.273Z,230.63
2018-05-12T08:54:07.169Z,230.63
2018-05-12T08:55:07.073Z,230.63
2018-05-12T08:56:07.083Z,230.63
2018-05-12T08:57:06.991Z,230.63
2018-05-12T08:58:06.875Z,230.63
2018-05-12T08:59:06.896Z,230.63
2018-05-12T09:00:06.740Z,230.63
2018-05-12T09:01:06.665Z,230.63
2018-05-12T09:02:06.607Z,225.00
2018-05-12T09:03:06.615Z,230.63
2018-05-12T09:04:06.458Z,230.63
2018-05-12T09:05:06.427Z,230.63
2018-05-12T09:06:06.435Z,230.63
2018-05-12T09:07:06.253Z,230.63
2018-05-12T09:08:06.241Z,230.63
2018-05-12T09:09:06.152Z,230.63
2018-05-12T09:10:06.675Z,230.63
2018-05-12T09:11:06.058Z,230.63
2018-05-12T09:12:05.975Z,230.63
2018-05-12T09:13:05.842Z,230.63
2018-05-12T09:14:05.875Z,230.63
2018-05-12T09:15:05.780Z,230.63
2018-05-12T09:16:05.643Z,230.63
2018-05-12T09:17:05.686Z,230.63
2018-05-12T09:18:05.516Z,230.63
2018-05-12T09:19:05.441Z,230.63
2018-05-12T09:20:05.401Z,230.63
2018-05-12T09:21:05.410Z,230.63
2018-05-12T09:22:05.238Z,230.63
2018-05-12T09:23:05.216Z,230.63
2018-05-12T09:24:05.121Z,230.63
2018-05-12T09:25:05.038Z,230.63
2018-05-12T09:26:05.034Z,230.63
2018-05-12T09:27:04.939Z,230.63
2018-05-12T09:28:04.834Z,230.63
2018-05-12T09:29:04.777Z,230.63
2018-05-12T09:30:04.752Z,230.63
2018-05-12T09:31:04.635Z,230.63
2018-05-12T09:32:04.588Z,230.63
2018-05-12T09:33:04.574Z,230.63
2018-05-12T09:34:04.437Z,230.63
2018-05-12T09:35:04.480Z,230.63
2018-05-12T09:36:04.319Z,230.63
2018-05-12T09:37:04.232Z,230.63
2018-05-12T09:38:04.193Z,230.63
2018-05-12T09:39:04.111Z,230.63
2018-05-12T09:40:04.035Z,230.63
2018-05-12T09:41:03.980Z,230.63
2018-05-12T09:42:04.014Z,230.63
2018-05-12T09:43:03.834Z,230.63
2018-05-12T09:44:03.830Z,230.63
2018-05-12T09:45:03.731Z,230.63
2018-05-12T09:46:03.638Z,230.63
2018-05-12T09:47:03.636Z,230.63
2018-05-12T09:48:03.544Z,230.63
2018-05-12T09:49:03.445Z,230.63
2018-05-12T09:50:03.459Z,230.63
2018-05-12T09:51:03.320Z,230.63
2018-05-12T09:52:03.252Z,230.63
2018-05-12T09:53:03.270Z,225.00
2018-05-12T09:54:03.178Z,225.00
2018-05-12T09:55:03.049Z,225.00
2018-05-12T09:56:03.086Z,225.00
2018-05-12T09:57:02.993Z,225.00
2018-05-12T09:58:02.849Z,225.00
2018-05-12T09:59:02.798Z,225.00
2018-05-12T10:00:02.804Z,225.00
2018-05-12T10:01:02.651Z,225.00
2018-05-12T10:02:02.614Z,225.00
2018-05-12T10:03:02.519Z,225.00
2018-05-12T10:04:02.453Z,225.00
2018-05-12T10:05:02.426Z,219.38
2018-05-12T10:06:02.325Z,219.38
2018-05-12T10:07:02.264Z,219.38
2018-05-12T10:08:02.242Z,219.38
2018-05-12T10:09:02.123Z,219.38
2018-05-12T10:10:02.068Z,219.38
2018-05-12T10:11:02.057Z,225.00
2018-05-12T10:12:01.930Z,225.00
2018-05-12T10:13:01.864Z,219.38
2018-05-12T10:14:01.872Z,219.38
2018-05-12T10:15:01.737Z,219.38
2018-05-12T10:16:01.664Z,219.38
2018-05-12T10:17:01.690Z,219.38
2018-05-12T10:18:01.542Z,219.38
2018-05-12T10:19:01.474Z,219.38
2018-05-12T10:20:01.503Z,219.38
2018-05-12T10:21:01.342Z,219.38
2018-05-12T10:22:01.279Z,219.38
2018-05-12T10:23:01.326Z,219.38
2018-05-12T10:24:01.151Z,219.38
2018-05-12T10:25:01.089Z,219.38
2018-05-12T10:26:01.030Z,219.38
2018-05-12T10:27:00.953Z,219.38
2018-05-12T10:28:00.898Z,219.38
2018-05-12T10:29:00.842Z,213.75
2018-05-12T10:30:00.767Z,219.38
2018-05-12T10:31:00.697Z,219.38
2018-05-12T10:32:00.631Z,219.38
2018-05-12T10:33:00.564Z,219.38
2018-05-12T10:34:00.496Z,219.38
2018-05-12T10:35:00.478Z,219.38
2018-05-12T10:36:00.365Z,219.38
2018-05-12T10:37:00.303Z,219.38
2018-05-12T10:38:00.294Z,219.38
2018-05-12T10:39:00.205Z,219.38
2018-05-12T10:40:00.105Z,219.38
2018-05-12T10:41:00.110Z,213.75
2018-05-12T10:42:00.163Z,213.75
2018-05-12T10:42:59.911Z,213.75
2018-05-12T10:43:59.854Z,213.75
2018-05-12T10:44:59.800Z,213.75
2018-05-12T10:45:59.717Z,213.75
2018-05-12T10:46:59.658Z,219.38
2018-05-12T10:47:59.590Z,219.38
2018-05-12T10:48:59.522Z,219.38
2018-05-12T10:49:59.557Z,213.75
2018-05-12T10:50:59.406Z,213.75
2018-05-12T10:51:59.335Z,213.75
2018-05-12T10:52:59.376Z,219.38
2018-05-12T10:53:59.206Z,213.75
2018-05-12T10:54:59.142Z,219.38
2018-05-12T10:55:59.080Z,213.75
2018-05-12T10:56:59.005Z,213.75
2018-05-12T10:57:58.937Z,219.38
2018-05-12T10:58:58.928Z,213.75
2018-05-12T10:59:58.816Z,213.75
2018-05-12T11:00:58.749Z,219.38
2018-05-12T11:01:58.780Z,219.38
2018-05-12T11:02:58.624Z,213.75
2018-05-12T11:03:58.559Z,219.38
2018-05-12T11:04:58.503Z,213.75
2018-05-12T11:05:58.428Z,208.13
2018-05-12T11:06:58.363Z,208.13
2018-05-12T11:07:58.343Z,202.50
2018-05-12T11:08:58.234Z,208.13
2018-05-12T11:09:58.170Z,202.50
2018-05-12T11:10:58.160Z,213.75
2018-05-12T11:11:58.041Z,213.75
2018-05-12T11:12:57.980Z,213.75
2018-05-12T11:13:57.971Z,196.88
2018-05-12T11:14:57.852Z,196.88
2018-05-12T11:15:57.888Z,180.00
2018-05-12T11:16:57.792Z,67.50
2018-05-12T11:17:57.659Z,61.88
2018-05-12T11:18:57.595Z,56.25
2018-05-12T11:19:57.604Z,56.25
2018-05-12T11:20:57.470Z,67.50
2018-05-12T11:21:57.562Z,84.38
2018-05-12T11:22:57.337Z,61.88
2018-05-12T11:23:57.327Z,56.25
2018-05-12T11:24:57.213Z,56.25
2018-05-12T11:25:57.235Z,202.50
2018-05-12T11:26:57.081Z,163.13
2018-05-12T11:27:57.020Z,50.63
2018-05-12T11:28:57.053Z,50.63
2018-05-12T11:29:56.885Z,135.00
2018-05-12T11:30:56.828Z,61.88
2018-05-12T11:31:56.867Z,202.50
2018-05-12T11:32:56.699Z,50.63
2018-05-12T11:33:56.632Z,61.88
2018-05-12T11:34:56.683Z,208.13
2018-05-12T11:35:56.502Z,208.13
2018-05-12T11:36:56.437Z,135.00
2018-05-12T11:37:56.400Z,146.25
2018-05-12T11:38:56.311Z,213.75
2018-05-12T11:39:56.245Z,208.13
2018-05-12T11:40:56.210Z,208.13
2018-05-12T11:41:56.115Z,208.13
2018-05-12T11:42:56.050Z,191.25
2018-05-12T11:43:56.027Z,61.88
2018-05-12T11:44:55.923Z,157.50
2018-05-12T11:45:55.864Z,191.25
2018-05-12T11:46:55.798Z,196.88
2018-05-12T11:47:55.846Z,196.88
2018-05-12T11:48:55.665Z,196.88
2018-05-12T11:49:55.656Z,196.88
2018-05-12T11:50:55.538Z,180.00
2018-05-12T11:51:55.480Z,174.38
2018-05-12T11:52:55.472Z,174.38
2018-05-12T11:53:55.347Z,174.38
2018-05-12T11:54:55.286Z,168.75
2018-05-12T11:55:55.288Z,185.63
2018-05-12T11:56:55.161Z,185.63
2018-05-12T11:57:55.089Z,185.63
2018-05-12T11:58:55.100Z,168.75
2018-05-12T11:59:54.960Z,174.38
2018-05-12T12:00:54.898Z,180.00
2018-05-12T12:01:54.917Z,174.38
2018-05-12T12:02:54.765Z,174.38
2018-05-12T12:03:54.703Z,180.00
2018-05-12T12:04:54.753Z,180.00
2018-05-12T12:05:54.568Z,180.00
2018-05-12T12:06:54.504Z,180.00
2018-05-12T12:07:54.553Z,180.00
2018-05-12T12:08:54.377Z,180.00
2018-05-12T12:09:54.304Z,180.00
2018-05-12T12:10:54.268Z,180.00
2018-05-12T12:11:54.179Z,180.00
2018-05-12T12:12:54.107Z,185.63
2018-05-12T12:13:54.077Z,101.25
2018-05-12T12:14:53.973Z,73.13
2018-05-12T12:15:53.918Z,61.88
2018-05-12T12:16:53.892Z,67.50
2018-05-12T12:17:53.776Z,180.00
2018-05-12T12:18:53.713Z,180.00
2018-05-12T12:19:53.709Z,180.00
2018-05-12T12:20:53.576Z,45.00
2018-05-12T12:21:53.509Z,33.75
2018-05-12T12:22:53.524Z,33.75
2018-05-12T12:23:53.381Z,33.75
2018-05-12T12:24:53.306Z,33.75
2018-05-12T12:25:53.338Z,39.38
2018-05-12T12:26:53.173Z,39.38
2018-05-12T12:27:53.124Z,112.50
2018-05-12T12:28:53.153Z,50.63
2018-05-12T12:29:52.977Z,45.00
2018-05-12T12:30:52.903Z,50.63
2018-05-12T12:31:52.868Z,45.00
2018-05-12T12:32:52.772Z,45.00
2018-05-12T12:33:52.708Z,45.00
2018-05-12T12:34:52.678Z,50.63
2018-05-12T12:35:52.574Z,50.63
2018-05-12T12:36:52.594Z,151.88
2018-05-12T12:37:52.435Z,174.38
2018-05-12T12:38:52.400Z,180.00
2018-05-12T12:39:52.409Z,180.00
2018-05-12T12:40:52.235Z,180.00
2018-05-12T12:41:52.215Z,180.00
2018-05-12T12:42:52.120Z,180.00
2018-05-12T12:43:52.053Z,180.00
2018-05-12T12:44:52.033Z,174.38
2018-05-12T12:45:51.901Z,168.75
2018-05-12T12:46:51.943Z,168.75
2018-05-12T12:47:51.773Z,168.75
2018-05-12T12:48:51.700Z,174.38
2018-05-12T12:49:51.658Z,174.38
2018-05-12T12:50:51.566Z,174.38